Zeus — WDC2598 — position and weather

sailwx.info

Track history (hours):
 
Tides and Currents Weather Stations Pressure Air Temp Water Temp Dewpoint Dewpoint Depression Visibility Wind Speed Wind Dir Waves Ship Positions

Zeus

Owner: Kirby Inland Marine, LP, Houston, TX. More information available from US FCC via Universal Licensing System and Coast Guard Vessel Documentation Center.

Last reported at 2018-Jun-06 16:45 UTC. Time now 2018-Jun-21 02:50 UTC.
Position N 32°38' W 091°09'.
Warning: this ship's position is 14 days out of date.

Length 204 m; draft 3 m.

Type: . MMSI: 366995430.

Date/timePositionNaut miles runAvg speedWind from/ knotsBaromVisibWave heightAir tempDewpointWater temp
2018-Jun-06 16:45N 32°38' W 091°09'1 5.3
2018-Jun-06 16:30N 32°37' W 091°09'2 4.8
2018-Jun-06 16:00N 32°35' W 091°07'2 4.6
2018-Jun-06 15:30N 32°33' W 091°06'3 5.7
2018-Jun-06 15:00N 32°30' W 091°07'2 5.0
2018-Jun-06 14:30N 32°28' W 091°06'3 5.2
2018-Jun-06 14:00N 32°26' W 091°03'2 4.9
2018-Jun-06 13:30N 32°25' W 091°00'2 4.3
2018-Jun-06 13:00N 32°23' W 090°60'2 4.4
2018-Jun-06 12:30N 32°21' W 090°59'2 3.1
2018-Jun-06 11:59N 32°21' W 090°57'1 2.1
2018-Jun-06 11:30N 32°21' W 090°56'2 4.3
2018-Jun-06 11:00N 32°20' W 090°54'2 3.1
2018-Jun-06 10:30N 32°18' W 090°55'1 2.2
2018-Jun-06 10:00N 32°18' W 090°56'2 4.0
2018-Jun-06 09:30N 32°16' W 090°58'2 4.8
2018-Jun-06 09:00N 32°14' W 090°59'2 4.9
2018-Jun-06 08:30N 32°12' W 090°59'2 4.2
2018-Jun-06 08:00N 32°10' W 091°00'2 4.4
2018-Jun-06 07:30N 32°08' W 091°01'2 4.7
2018-Jun-06 07:00N 32°08' W 091°03'2 4.5
2018-Jun-06 06:30N 32°08' W 091°06'4 4.1
2018-Jun-06 05:39N 32°05' W 091°04'1 5.4
2018-Jun-06 05:26N 32°04' W 091°03'2 5.3
2018-Jun-06 04:59N 32°01' W 091°04'4 5.3
2018-Jun-06 04:19N 31°59' W 091°08'2 5.4
2018-Jun-06 03:53N 31°59' W 091°10'  
2018-Jun-01 01:23N 31°57' W 091°11'5 7.9
2018-Jun-01 00:45N 31°59' W 091°06'2 9.7
2018-Jun-01 00:30N 32°01' W 091°04'5 8.5
2018-May-31 23:54N 32°06' W 091°06'2 5.6
2018-May-31 23:30N 32°08' W 091°04'4 7.8
2018-May-31 23:01N 32°09' W 091°00'5 9.5
2018-May-31 22:31N 32°14' W 090°59'5 9.1
2018-May-31 22:01N 32°18' W 090°56'3 6.1
2018-May-31 21:30N 32°21' W 090°56'4 8.2
2018-May-31 21:01N 32°22' W 091°00'4 7.4
2018-May-31 20:31N 32°26' W 091°02'5 9.3
2018-May-31 20:01N 32°28' W 091°06'4 8.9
2018-May-31 19:31N 32°33' W 091°06'5 8.8
2018-May-31 19:00N 32°36' W 091°09'  
Track history (hours):
 
Tides and Currents Weather Stations Pressure Air Temp Water Temp Dewpoint Dewpoint Depression Visibility Wind Speed Wind Dir Waves Ship Positions

Zeus

Owner: Kirby Inland Marine, LP, Houston, TX. More information available from US FCC via Universal Licensing System and Coast Guard Vessel Documentation Center.

Last reported at 2018-Jun-06 16:45 UTC. Time now 2018-Jun-21 02:50 UTC.
Position N 32°38' W 091°09'.
Warning: this ship's position is 14 days out of date.

Length 204 m; draft 3 m.

Type: . MMSI: 366995430.

Date/timePositionNaut miles runAvg speedWind from/ knotsBaromVisibWave heightAir tempDewpointWater temp
2018-Jun-06 16:45N 32°38' W 091°09'1 5.3
2018-Jun-06 16:30N 32°37' W 091°09'2 4.8
2018-Jun-06 16:00N 32°35' W 091°07'2 4.6
2018-Jun-06 15:30N 32°33' W 091°06'3 5.7
2018-Jun-06 15:00N 32°30' W 091°07'2 5.0
2018-Jun-06 14:30N 32°28' W 091°06'3 5.2
2018-Jun-06 14:00N 32°26' W 091°03'2 4.9
2018-Jun-06 13:30N 32°25' W 091°00'2 4.3
2018-Jun-06 13:00N 32°23' W 090°60'2 4.4
2018-Jun-06 12:30N 32°21' W 090°59'2 3.1
2018-Jun-06 11:59N 32°21' W 090°57'1 2.1
2018-Jun-06 11:30N 32°21' W 090°56'2 4.3
2018-Jun-06 11:00N 32°20' W 090°54'2 3.1
2018-Jun-06 10:30N 32°18' W 090°55'1 2.2
2018-Jun-06 10:00N 32°18' W 090°56'2 4.0
2018-Jun-06 09:30N 32°16' W 090°58'2 4.8
2018-Jun-06 09:00N 32°14' W 090°59'2 4.9
2018-Jun-06 08:30N 32°12' W 090°59'2 4.2
2018-Jun-06 08:00N 32°10' W 091°00'2 4.4
2018-Jun-06 07:30N 32°08' W 091°01'2 4.7
2018-Jun-06 07:00N 32°08' W 091°03'2 4.5
2018-Jun-06 06:30N 32°08' W 091°06'4 4.1
2018-Jun-06 05:39N 32°05' W 091°04'1 5.4
2018-Jun-06 05:26N 32°04' W 091°03'2 5.3
2018-Jun-06 04:59N 32°01' W 091°04'4 5.3
2018-Jun-06 04:19N 31°59' W 091°08'2 5.4
2018-Jun-06 03:53N 31°59' W 091°10'  
2018-Jun-01 01:23N 31°57' W 091°11'5 7.9
2018-Jun-01 00:45N 31°59' W 091°06'2 9.7
2018-Jun-01 00:30N 32°01' W 091°04'5 8.5
2018-May-31 23:54N 32°06' W 091°06'2 5.6
2018-May-31 23:30N 32°08' W 091°04'4 7.8
2018-May-31 23:01N 32°09' W 091°00'5 9.5
2018-May-31 22:31N 32°14' W 090°59'5 9.1
2018-May-31 22:01N 32°18' W 090°56'3 6.1
2018-May-31 21:30N 32°21' W 090°56'4 8.2
2018-May-31 21:01N 32°22' W 091°00'4 7.4
2018-May-31 20:31N 32°26' W 091°02'5 9.3
2018-May-31 20:01N 32°28' W 091°06'4 8.9
2018-May-31 19:31N 32°33' W 091°06'5 8.8
2018-May-31 19:00N 32°36' W 091°09'  

Dump ship's entire track history